createdAt,value
2023-05-22T00:05:51.530Z,56.04
2023-05-22T00:12:16.154Z,56.16
2023-05-22T00:17:57.500Z,56.38
2023-05-22T00:23:18.333Z,56.57
2023-05-22T00:29:37.399Z,56.83
2023-05-22T00:36:19.855Z,56.96
2023-05-22T00:43:21.726Z,57.23
2023-05-22T00:50:04.067Z,57.72
2023-05-22T00:57:07.048Z,57.68
2023-05-22T01:03:31.658Z,57.71
2023-05-22T01:10:33.642Z,57.78
2023-05-22T01:17:21.812Z,57.89
2023-05-22T01:24:08.125Z,58.17
2023-05-22T01:30:17.218Z,58.19
2023-05-22T01:35:54.196Z,58.34
2023-05-22T01:42:05.245Z,58.55
2023-05-22T01:48:42.044Z,58.75
2023-05-22T01:55:03.139Z,58.97
2023-05-22T02:00:39.098Z,59.32
2023-05-22T02:06:50.412Z,59.50
2023-05-22T02:13:35.696Z,59.54
2023-05-22T02:20:20.733Z,59.79
2023-05-22T02:27:12.373Z,60.03
2023-05-22T02:33:40.516Z,60.28
2023-05-22T02:40:42.436Z,60.36
2023-05-22T02:47:04.794Z,60.32
2023-05-22T02:53:26.343Z,60.26
2023-05-22T03:00:29.271Z,60.21
2023-05-22T03:06:20.708Z,60.18
2023-05-22T03:12:30.638Z,60.06
2023-05-22T03:19:07.843Z,60.05
2023-05-22T03:25:33.450Z,60.10
2023-05-22T03:31:54.069Z,60.10
2023-05-22T03:38:36.170Z,60.02
2023-05-22T03:45:32.890Z,60.02
2023-05-22T03:51:20.137Z,60.10
2023-05-22T03:57:45.511Z,60.06
2023-05-22T04:04:10.098Z,60.02
2023-05-22T04:10:55.928Z,59.96
2023-05-22T04:17:22.802Z,59.80
2023-05-22T04:23:49.079Z,59.59
2023-05-22T04:30:00.950Z,59.42
2023-05-22T04:35:17.998Z,59.18
2023-05-22T04:40:52.398Z,58.98
2023-05-22T04:47:16.056Z,58.67
2023-05-22T04:54:04.013Z,58.43
2023-05-22T05:00:48.899Z,57.49
2023-05-22T05:07:10.616Z,57.37
2023-05-22T05:13:38.552Z,56.64
2023-05-22T05:20:03.473Z,55.72
2023-05-22T05:26:25.080Z,54.95
2023-05-22T05:33:05.110Z,54.39
2023-05-22T05:39:12.087Z,53.78
2023-05-22T05:45:13.926Z,53.26
2023-05-22T05:51:36.327Z,50.38
2023-05-22T05:56:59.012Z,49.10
2023-05-22T06:03:00.468Z,48.76
2023-05-22T06:09:43.698Z,45.42
2023-05-22T06:16:29.942Z,44.11
2023-05-22T06:22:51.483Z,41.99
2023-05-22T06:29:30.979Z,41.78
2023-05-22T06:36:09.663Z,37.94
2023-05-22T06:42:34.596Z,38.95
2023-05-22T06:49:34.895Z,36.67
2023-05-22T06:55:05.166Z,36.40
2023-05-22T07:01:07.282Z,36.49
2023-05-22T07:07:35.274Z,37.19
2023-05-22T07:14:36.866Z,34.22
2023-05-22T07:20:58.252Z,33.70
2023-05-22T07:27:19.951Z,32.30
2023-05-22T07:34:02.276Z,32.02
2023-05-22T07:40:28.968Z,27.40
2023-05-22T07:46:08.882Z,28.00
2023-05-22T07:51:14.816Z,27.22
2023-05-22T07:56:25.199Z,24.49
2023-05-22T08:01:29.640Z,20.91
2023-05-22T08:06:34.545Z,21.99
2023-05-22T08:12:36.137Z,23.31
2023-05-22T08:19:10.053Z,23.98
2023-05-22T08:25:32.210Z,22.43
2023-05-22T08:32:28.162Z,23.51
2023-05-22T08:39:00.800Z,22.81
2023-05-22T08:44:24.572Z,23.84
2023-05-22T08:49:35.094Z,23.45
2023-05-22T08:54:51.333Z,22.85
2023-05-22T08:59:56.720Z,24.59
2023-05-22T09:06:00.295Z,24.50
2023-05-22T09:12:21.683Z,23.43
2023-05-22T09:18:45.733Z,24.07
2023-05-22T09:25:07.632Z,26.01
2023-05-22T09:31:31.036Z,26.03
2023-05-22T09:37:03.945Z,25.45
2023-05-22T09:42:29.094Z,23.90
2023-05-22T09:48:31.009Z,23.58
2023-05-22T09:54:52.339Z,23.12
2023-05-22T10:01:23.190Z,22.17
2023-05-22T10:07:47.040Z,22.13
2023-05-22T10:14:12.383Z,21.33
2023-05-22T10:20:43.564Z,21.31
2023-05-22T10:27:08.503Z,20.70
2023-05-22T10:33:12.417Z,20.36
2023-05-22T10:39:24.012Z,21.45
2023-05-22T10:46:08.743Z,19.96
2023-05-22T10:52:29.993Z,21.29
2023-05-22T10:58:53.896Z,20.70
2023-05-22T11:05:17.984Z,21.73
2023-05-22T11:12:01.679Z,21.15
2023-05-22T11:18:53.072Z,21.71
2023-05-22T11:25:38.924Z,19.95
2023-05-22T11:32:04.309Z,20.92
2023-05-22T11:38:25.695Z,22.51
2023-05-22T11:45:07.124Z,21.91
2023-05-22T11:51:28.607Z,22.79
2023-05-22T11:57:52.738Z,23.76
2023-05-22T12:04:25.830Z,21.63
2023-05-22T12:10:47.222Z,22.73
2023-05-22T12:17:16.831Z,22.92
2023-05-22T12:23:00.129Z,22.74
2023-05-22T12:28:09.352Z,22.21
2023-05-22T12:34:13.733Z,21.85
2023-05-22T12:40:35.614Z,20.73
2023-05-22T12:47:00.309Z,19.76
2023-05-22T12:53:24.549Z,19.64
2023-05-22T12:59:54.240Z,19.04
2023-05-22T13:06:18.535Z,19.51
2023-05-22T13:12:39.810Z,17.21
2023-05-22T13:19:01.379Z,18.80
2023-05-22T13:24:43.715Z,17.87
2023-05-22T13:31:08.581Z,18.58
2023-05-22T13:37:30.433Z,19.58
2023-05-22T13:43:25.887Z,18.17
2023-05-22T13:48:57.205Z,19.44
2023-05-22T13:54:31.122Z,19.97
2023-05-22T14:00:56.962Z,19.92
2023-05-22T14:06:38.199Z,19.63
2023-05-22T14:13:06.746Z,20.10
2023-05-22T14:19:28.630Z,20.67
2023-05-22T14:25:56.036Z,21.52
2023-05-22T14:32:25.484Z,21.76
2023-05-22T14:37:52.732Z,21.49
2023-05-22T14:43:20.144Z,21.31
2023-05-22T14:48:46.509Z,21.16
2023-05-22T14:54:49.169Z,21.13
2023-05-22T15:01:00.594Z,21.05
2023-05-22T15:13:53.674Z,21.67
2023-05-22T15:20:02.454Z,21.92
2023-05-22T15:26:26.694Z,22.70
2023-05-22T15:33:29.068Z,23.86
2023-05-22T15:40:31.496Z,24.94
2023-05-22T15:46:48.644Z,26.46
2023-05-22T15:52:31.376Z,27.28
2023-05-22T15:59:16.524Z,27.43
2023-05-22T16:05:41.887Z,27.98
2023-05-22T16:12:47.209Z,28.27
2023-05-22T16:19:50.266Z,29.51
2023-05-22T16:26:53.023Z,30.13
2023-05-22T16:34:01.460Z,30.46
2023-05-22T16:40:29.546Z,31.07
2023-05-22T16:46:45.697Z,31.71
2023-05-22T16:52:28.041Z,32.29
2023-05-22T16:57:55.866Z,32.75
2023-05-22T17:03:58.797Z,33.15
2023-05-22T17:09:07.951Z,33.44
2023-05-22T17:14:38.167Z,33.77
2023-05-22T17:19:45.642Z,34.20
2023-05-22T17:25:44.123Z,34.42
2023-05-22T17:31:32.490Z,34.99
2023-05-22T17:37:10.778Z,35.35
2023-05-22T17:42:25.635Z,35.81
2023-05-22T17:49:05.612Z,36.35
2023-05-22T17:55:11.559Z,36.72
2023-05-22T18:00:35.089Z,37.22
2023-05-22T18:06:30.950Z,37.55
2023-05-22T18:13:01.711Z,38.33
2023-05-22T18:18:37.550Z,38.98
2023-05-22T18:24:42.759Z,39.46
2023-05-22T18:30:15.501Z,40.28
2023-05-22T18:36:33.768Z,40.84
2023-05-22T18:42:24.737Z,41.82
2023-05-22T18:47:46.864Z,42.27
2023-05-22T18:53:24.707Z,42.98
2023-05-22T18:58:40.580Z,43.11
2023-05-22T19:04:48.321Z,43.82
2023-05-22T19:10:34.588Z,44.01
2023-05-22T19:16:52.026Z,44.69
2023-05-22T19:23:36.350Z,45.23
2023-05-22T19:29:52.970Z,45.75
2023-05-22T19:36:09.467Z,46.14
2023-05-22T19:42:19.338Z,46.61
2023-05-22T19:47:37.038Z,46.98
2023-05-22T19:53:40.607Z,47.19
2023-05-22T19:59:36.642Z,47.61
2023-05-22T20:04:47.768Z,47.97
2023-05-22T20:10:11.558Z,48.25
2023-05-22T20:15:20.381Z,48.27
2023-05-22T20:20:54.096Z,48.73
2023-05-22T20:26:11.371Z,48.91
2023-05-22T20:32:03.777Z,49.14
2023-05-22T20:38:03.074Z,49.45
2023-05-22T20:44:11.845Z,49.73
2023-05-22T20:51:14.415Z,50.01
2023-05-22T20:58:17.183Z,50.32
2023-05-22T21:05:19.499Z,50.74
2023-05-22T21:11:56.151Z,51.13
2023-05-22T21:18:59.298Z,51.48
2023-05-22T21:25:20.559Z,51.65
2023-05-22T21:31:48.791Z,51.97
2023-05-22T21:38:51.676Z,52.37
2023-05-22T21:45:35.410Z,52.67
2023-05-22T21:52:01.920Z,53.16
2023-05-22T21:57:44.437Z,53.34
2023-05-22T22:03:40.716Z,53.76
2023-05-22T22:09:40.945Z,53.96
2023-05-22T22:16:26.408Z,54.25
2023-05-22T22:22:40.490Z,54.39
2023-05-22T22:28:41.587Z,54.49
2023-05-22T22:35:19.878Z,54.50
2023-05-22T22:41:41.898Z,54.74
2023-05-22T22:47:22.116Z,54.95
2023-05-22T22:53:26.689Z,55.31
2023-05-22T22:59:45.651Z,55.66
2023-05-22T23:06:14.060Z,55.99
2023-05-22T23:13:16.909Z,56.31
2023-05-22T23:19:54.109Z,56.55
2023-05-22T23:26:41.144Z,56.89
2023-05-22T23:33:30.803Z,57.23
2023-05-22T23:40:23.884Z,57.61
2023-05-22T23:47:16.166Z,57.94
2023-05-22T23:53:32.738Z,58.16
